This is the latest recevied weather packets stored in our database for station/object NK0Z-13. If no packets are shown the sender has not sent any weather packets the latest 10 day(s).
| Time | Temp. | Humidity | Pressure | Rain* | Wind** | Luminosity | Snow |
|---|---|---|---|---|---|---|---|
| 1778025074 | 11.11° C | 66% | 1014.6 hPa | 0 mm | - | 42 W/m² | - |
| 1778024474 | 11.11° C | 65% | 1014.4 hPa | 0 mm | - | 57 W/m² | - |
| 1778023868 | 11.67° C | 64% | 1014.2 hPa | 0 mm | - | 116 W/m² | - |
| 1778023263 | 11.67° C | 61% | 1014.4 hPa | 0 mm | - | 143 W/m² | - |
| 1778022659 | 11.67° C | 60% | 1014.4 hPa | 0 mm | - | 203 W/m² | - |
| 1778022058 | 11.67° C | 60% | 1014.4 hPa | 0 mm | - | 207 W/m² | - |
| 1778021456 | 11.67° C | 59% | 1014.4 hPa | 0 mm | - | 177 W/m² | - |
| 1778020857 | 11.67° C | 62% | 1014.2 hPa | 0 mm | - | 220 W/m² | - |
| 1778020256 | 11.67° C | 62% | 1013.8 hPa | 0 mm | - | 246 W/m² | - |
| 1778019654 | 12.22° C | 62% | 1013.8 hPa | 0 mm | - | 232 W/m² | - |
| 1778019053 | 11.67° C | 61% | 1014.4 hPa | 0 mm | - | 214 W/m² | - |
| 1778018448 | 11.67° C | 59% | 1014.5 hPa | 0 mm | - | 206 W/m² | - |
| 1778017844 | 12.22° C | 59% | 1014.1 hPa | 0 mm | - | 300 W/m² | - |
| 1778017244 | 12.22° C | 60% | 1014.3 hPa | 0 mm | - | 234 W/m² | - |
| 1778016644 | 12.22° C | 56% | 1014.2 hPa | 0 mm | - | 287 W/m² | - |
| 1778016044 | 12.78° C | 57% | 1014.1 hPa | 0 mm | - | 326 W/m² | - |
| 1778015443 | 12.78° C | 58% | 1014.4 hPa | 0 mm | - | 300 W/m² | - |
| 1778014837 | 12.78° C | 58% | 1014.7 hPa | 0 mm | - | 328 W/m² | - |
| 1778014238 | 12.78° C | 58% | 1014.7 hPa | 0 mm | - | 340 W/m² | - |
| 1778013632 | 13.33° C | 59% | 1014.7 hPa | 0 mm | - | 523 W/m² | - |
| 1778013032 | 12.22° C | 58% | 1014.6 hPa | 0 mm | - | 386 W/m² | - |
| 1778012430 | 12.78° C | 59% | 1014.6 hPa | 0 mm | - | 280 W/m² | - |
| 1778011825 | 12.22° C | 62% | 1014.6 hPa | 0 mm | - | 300 W/m² | - |
| 1778011219 | 11.67° C | 66% | 1014.7 hPa | 0 mm | - | 181 W/m² | - |
| 1778010618 | 12.22° C | 65% | 1014.6 hPa | 0 mm | - | 283 W/m² | - |
* Rain latest hour (hover to see other rain measurements)
** Current wind speed in m/s (hover to see current wind gust speed)